Time;durP1;ratioP1;P1;durP2;ratioP2;P2;SDS_P1;SDS_P2;PMS_P1;PMS_P2;Temp;Humidity;BMP_temperature;BMP_pressure;BME280_temperature;BME280_humidity;BME280_pressure;Samples;Min_cycle;Max_cycle;Signal;HPM_P1;HPM_P2
2022/12/08 00:00:52;;;;;;;7.55;1.15;;;2.10;99.90;;;;;;4956603;28;20104;-78
2022/12/08 00:03:17;;;;;;;5.15;1.17;;;2.10;99.90;;;;;;4989556;28;20047;-78
2022/12/08 00:11:14;;;;;;;4.13;1.48;;;2.10;99.90;;;;;;4975511;28;20494;-78
2022/12/08 00:13:40;;;;;;;4.32;1.50;;;3.00;99.90;;;;;;4975209;28;20593;-78
2022/12/08 00:16:06;;;;;;;4.53;1.60;;;2.00;99.90;;;;;;4961243;28;20047;-78
2022/12/08 00:18:32;;;;;;;5.00;1.75;;;3.10;99.90;;;;;;4977136;28;20454;-78
2022/12/08 00:20:58;;;;;;;5.78;1.42;;;2.00;99.90;;;;;;4977046;28;20038;-78
2022/12/08 00:23:25;;;;;;;6.35;1.65;;;2.10;99.90;;;;;;4973571;28;20454;-78
2022/12/08 00:25:50;;;;;;;3.15;1.35;;;2.10;99.90;;;;;;4977211;28;20042;-78
2022/12/08 00:28:16;;;;;;;4.45;1.52;;;2.10;99.90;;;;;;4977058;28;20601;-78
2022/12/08 00:30:42;;;;;;;4.45;1.70;;;2.10;99.90;;;;;;4960668;28;20061;-77
2022/12/08 00:33:09;;;;;;;6.88;1.67;;;2.10;99.90;;;;;;4976969;28;20050;-78
2022/12/08 00:35:35;;;;;;;7.78;1.75;;;2.10;99.90;;;;;;4961141;28;20438;-78
2022/12/08 00:38:00;;;;;;;3.95;1.67;;;3.50;99.90;;;;;;4975723;28;20034;-78
2022/12/08 00:40:27;;;;;;;5.45;1.90;;;2.10;99.90;;;;;;4976563;28;20073;-78
2022/12/08 00:42:52;;;;;;;3.30;1.80;;;2.10;99.90;;;;;;4992786;28;20104;-78
2022/12/08 00:45:18;;;;;;;4.45;1.70;;;2.80;99.90;;;;;;4960477;28;20042;-78
2022/12/08 00:47:44;;;;;;;5.82;2.35;;;2.10;99.90;;;;;;4960300;28;20101;-78
2022/12/08 00:50:10;;;;;;;7.07;2.20;;;2.10;99.90;;;;;;4944233;28;20057;-78
2022/12/08 00:52:36;;;;;;;9.20;1.90;;;2.10;99.90;;;;;;4985587;28;20034;-78
2022/12/08 00:55:03;;;;;;;7.72;2.22;;;2.20;99.90;;;;;;4992125;28;20038;-78
2022/12/08 00:57:28;;;;;;;5.03;1.83;;;2.20;99.90;;;;;;4975728;28;20073;-78
2022/12/08 00:59:54;;;;;;;7.30;2.17;;;2.20;99.90;;;;;;4968663;28;20042;-78
2022/12/08 01:02:20;;;;;;;11.57;2.45;;;3.70;99.90;;;;;;4975992;28;20105;-78
2022/12/08 01:04:45;;;;;;;6.38;2.38;;;2.20;99.90;;;;;;4959907;28;20042;-78
2022/12/08 01:07:11;;;;;;;4.07;2.30;;;2.30;99.90;;;;;;4975837;28;20054;-78
2022/12/08 01:09:37;;;;;;;7.75;2.08;;;3.10;99.90;;;;;;4975874;28;20042;-78
2022/12/08 01:12:03;;;;;;;7.20;2.65;;;2.40;99.90;;;;;;4943158;28;20498;-78
2022/12/08 01:14:29;;;;;;;7.57;2.33;;;2.40;99.90;;;;;;4976520;28;20050;-78
2022/12/08 01:16:54;;;;;;;6.43;2.83;;;2.40;99.90;;;;;;4975896;28;20509;-78
2022/12/08 01:19:20;;;;;;;7.13;2.45;;;2.40;99.90;;;;;;4975360;28;20038;-78
2022/12/08 01:21:46;;;;;;;5.10;2.38;;;2.40;99.90;;;;;;4966773;28;20069;-78
2022/12/08 01:24:18;;;;;;;4.43;2.15;;;3.30;99.90;;;;;;4990417;28;20046;-78
2022/12/08 01:26:44;;;;;;;4.70;2.17;;;2.50;99.90;;;;;;4975519;28;20046;-78
2022/12/08 01:29:10;;;;;;;5.78;2.28;;;2.50;99.90;;;;;;4975660;28;20511;-78
2022/12/08 01:31:36;;;;;;;14.18;2.70;;;2.70;99.90;;;;;;4991750;28;20077;-78
2022/12/08 01:34:02;;;;;;;7.28;2.30;;;2.60;99.90;;;;;;4995875;28;20088;-78
2022/12/08 01:36:30;;;;;;;3.90;2.08;;;2.60;99.90;;;;;;4991960;28;20457;-78
2022/12/08 01:38:57;;;;;;;7.00;2.05;;;2.70;99.90;;;;;;4975794;28;20042;-78
2022/12/08 01:41:26;;;;;;;7.55;1.90;;;2.70;99.90;;;;;;4991866;28;20153;-78
2022/12/08 01:44:00;;;;;;;7.45;1.83;;;3.20;99.90;;;;;;4990941;28;20118;-78
2022/12/08 01:46:27;;;;;;;4.85;1.60;;;2.80;99.90;;;;;;4975469;28;20105;-78
2022/12/08 01:49:09;;;;;;;6.55;1.83;;;2.80;99.90;;;;;;4990848;28;20050;-78
2022/12/08 01:51:41;;;;;;;5.68;1.42;;;2.90;99.90;;;;;;4975165;28;20176;-78
2022/12/08 01:54:07;;;;;;;6.72;2.28;;;2.90;99.90;;;;;;4975509;28;20096;-78
2022/12/08 01:57:02;;;;;;;5.63;1.70;;;4.20;99.90;;;;;;4966733;28;20486;-78
2022/12/08 01:59:31;;;;;;;6.20;1.50;;;3.00;99.90;;;;;;4969077;28;20491;-78
2022/12/08 02:01:57;;;;;;;8.07;2.63;;;2.90;99.90;;;;;;4991471;28;20042;-78
2022/12/08 02:04:23;;;;;;;3.72;1.65;;;3.10;99.90;;;;;;4959283;28;20039;-78
2022/12/08 02:06:49;;;;;;;5.43;1.90;;;2.90;99.90;;;;;;4991315;28;20046;-78
2022/12/08 02:09:15;;;;;;;6.13;2.00;;;2.90;99.90;;;;;;4959401;28;20038;-77
2022/12/08 02:11:41;;;;;;;7.35;2.55;;;3.60;99.90;;;;;;4965842;28;20521;-79
2022/12/08 02:14:09;;;;;;;4.85;2.42;;;3.70;99.90;;;;;;4991001;28;20054;-77
2022/12/08 02:16:48;;;;;;;8.43;2.80;;;4.00;99.90;;;;;;4975135;28;20050;-77
2022/12/08 02:19:23;;;;;;;5.13;2.90;;;2.90;99.90;;;;;;4974608;28;20641;-77
2022/12/08 02:21:57;;;;;;;6.70;2.88;;;2.90;99.90;;;;;;4974638;28;20049;-77
2022/12/08 02:24:55;;;;;;;8.57;2.67;;;2.90;99.90;;;;;;4974592;28;20046;-77
2022/12/08 02:27:39;;;;;;;6.05;3.40;;;2.90;99.90;;;;;;4990382;28;20054;-77
2022/12/08 02:30:12;;;;;;;7.18;3.45;;;2.90;99.90;;;;;;4990517;28;20550;-77
2022/12/08 02:33:14;;;;;;;8.30;3.30;;;3.10;99.90;;;;;;4991356;28;20435;-78
2022/12/08 02:35:52;;;;;;;6.78;2.95;;;3.00;99.90;;;;;;4962326;28;20048;-77
2022/12/08 02:39:02;;;;;;;6.60;3.00;;;3.00;99.90;;;;;;4963142;28;20049;-77
2022/12/08 02:41:51;;;;;;;9.50;3.10;;;3.00;99.90;;;;;;4988771;28;20093;-78
2022/12/08 02:44:21;;;;;;;8.23;3.05;;;4.10;99.90;;;;;;4990031;28;20050;-77
2022/12/08 02:47:01;;;;;;;6.97;2.65;;;3.10;99.90;;;;;;4996792;28;20042;-77
2022/12/08 02:49:30;;;;;;;6.57;2.47;;;4.00;99.90;;;;;;4974221;28;20042;-77
2022/12/08 02:52:11;;;;;;;6.05;2.90;;;3.60;99.90;;;;;;4989897;28;20042;-77
2022/12/08 02:54:58;;;;;;;6.50;2.47;;;3.20;99.90;;;;;;4973454;28;20506;-77
2022/12/08 02:57:33;;;;;;;5.82;2.85;;;3.20;99.90;;;;;;4996554;28;20054;-77
2022/12/08 03:00:17;;;;;;;7.68;3.30;;;3.20;99.90;;;;;;4972292;28;20165;-77
2022/12/08 03:03:05;;;;;;;9.05;3.20;;;3.20;99.90;;;;;;4989197;28;20038;-77
2022/12/08 03:05:56;;;;;;;10.60;3.45;;;3.20;99.90;;;;;;4973393;28;20415;-77
2022/12/08 03:08:31;;;;;;;8.20;3.10;;;3.20;99.90;;;;;;4972695;28;20041;-77
2022/12/08 03:11:05;;;;;;;7.25;2.40;;;4.60;99.90;;;;;;4964639;28;20038;-77
2022/12/08 03:13:39;;;;;;;5.13;2.47;;;3.20;99.90;;;;;;4972081;28;20517;-77
2022/12/08 03:16:08;;;;;;;10.90;3.00;;;4.20;99.90;;;;;;4971865;28;20072;-77
2022/12/08 03:18:38;;;;;;;7.50;3.47;;;3.50;99.90;;;;;;4995136;28;20137;-77
2022/12/08 03:21:08;;;;;;;6.15;3.20;;;3.10;99.90;;;;;;5004669;28;20053;-77
2022/12/08 03:23:36;;;;;;;6.65;3.00;;;3.10;99.90;;;;;;4973012;28;20445;-77
2022/12/08 03:26:28;;;;;;;9.40;3.45;;;3.10;99.90;;;;;;4989031;28;20034;-77
2022/12/08 03:28:54;;;;;;;6.53;3.05;;;3.10;99.90;;;;;;4971459;28;20042;-77
2022/12/08 03:31:23;;;;;;;5.10;3.10;;;3.10;99.90;;;;;;4957336;28;20081;-77
2022/12/08 03:33:53;;;;;;;5.88;3.28;;;3.10;99.90;;;;;;4972557;28;20372;-77
2022/12/08 03:36:19;;;;;;;7.68;3.22;;;3.90;99.90;;;;;;4972260;28;20043;-76
2022/12/08 03:38:48;;;;;;;6.78;2.80;;;3.30;99.90;;;;;;4972183;28;20081;-77
2022/12/08 03:41:17;;;;;;;6.88;2.75;;;4.40;99.90;;;;;;4973221;28;20049;-77
2022/12/08 03:43:54;;;;;;;6.85;3.15;;;3.10;99.90;;;;;;4956127;28;20034;-77
2022/12/08 03:46:22;;;;;;;5.53;2.78;;;3.10;99.90;;;;;;4972221;28;20463;-77
2022/12/08 03:48:48;;;;;;;11.13;3.05;;;4.60;99.90;;;;;;4987541;28;20054;-77
2022/12/08 03:51:14;;;;;;;5.82;2.47;;;3.10;99.90;;;;;;4956189;28;20398;-77
2022/12/08 03:53:40;;;;;;;4.07;2.65;;;3.50;99.90;;;;;;4963016;28;20046;-77
2022/12/08 03:56:39;;;;;;;5.53;2.60;;;3.00;99.90;;;;;;4987200;28;20045;-77
2022/12/08 03:59:05;;;;;;;4.82;2.20;;;3.00;99.90;;;;;;4979697;28;20100;-77
2022/12/08 04:01:31;;;;;;;3.25;1.70;;;4.40;99.90;;;;;;4973004;28;20520;-77
2022/12/08 04:03:57;;;;;;;3.53;1.50;;;3.50;99.90;;;;;;4971555;28;20042;-77
2022/12/08 04:06:23;;;;;;;3.58;1.50;;;3.10;99.90;;;;;;4987518;28;20053;-77
2022/12/08 04:08:50;;;;;;;5.15;1.40;;;4.30;99.90;;;;;;4963561;28;20548;-77
2022/12/08 04:11:17;;;;;;;2.78;1.23;;;3.00;99.90;;;;;;4988173;28;20057;-77
2022/12/08 04:13:43;;;;;;;3.65;1.20;;;3.50;99.90;;;;;;4987209;28;20517;-77
2022/12/08 04:16:14;;;;;;;3.00;1.30;;;3.10;99.90;;;;;;4971556;28;20498;-77
2022/12/08 04:18:40;;;;;;;2.97;1.10;;;3.10;99.90;;;;;;4989116;28;20402;-77
2022/12/08 04:21:06;;;;;;;4.68;1.30;;;3.60;99.90;;;;;;4955848;28;20042;-77
2022/12/08 04:23:31;;;;;;;3.65;1.20;;;3.10;99.90;;;;;;4955915;28;20593;-77
2022/12/08 04:25:57;;;;;;;4.38;1.20;;;3.00;99.90;;;;;;4972445;28;20039;-77
2022/12/08 04:28:23;;;;;;;3.15;1.33;;;3.80;99.90;;;;;;4971181;28;20158;-77
2022/12/08 04:30:49;;;;;;;4.60;1.65;;;3.10;99.90;;;;;;4971500;28;20042;-77
2022/12/08 04:33:15;;;;;;;5.53;1.73;;;3.00;99.90;;;;;;4955698;28;20042;-77
2022/12/08 04:35:40;;;;;;;3.88;1.55;;;3.20;99.90;;;;;;4987827;28;20057;-77
2022/12/08 04:38:06;;;;;;;6.30;1.80;;;3.30;99.90;;;;;;4972776;28;20494;-77
2022/12/08 04:40:32;;;;;;;6.28;1.98;;;3.00;99.90;;;;;;4972828;28;20506;-77
2022/12/08 04:42:58;;;;;;;4.57;1.90;;;4.30;99.90;;;;;;4988927;28;20074;-77
2022/12/08 04:45:24;;;;;;;5.07;2.10;;;3.00;99.90;;;;;;4988021;28;20494;-77
2022/12/08 04:47:49;;;;;;;4.35;2.40;;;3.00;99.90;;;;;;4941030;28;20045;-77
2022/12/08 04:50:15;;;;;;;5.32;1.90;;;2.90;99.90;;;;;;4989185;28;20442;-77
2022/12/08 04:52:41;;;;;;;4.65;2.10;;;3.00;99.90;;;;;;4957215;28;20121;-77
2022/12/08 04:55:07;;;;;;;4.15;2.13;;;3.00;99.90;;;;;;4956518;28;20128;-77
2022/12/08 04:57:32;;;;;;;2.75;1.80;;;3.00;99.90;;;;;;4972626;28;20049;-77
2022/12/08 04:59:58;;;;;;;4.55;2.03;;;3.00;99.90;;;;;;4959830;28;20061;-77
2022/12/08 05:02:24;;;;;;;5.07;1.85;;;4.20;99.90;;;;;;4976274;28;20494;-77
2022/12/08 05:04:49;;;;;;;3.38;1.33;;;3.00;99.90;;;;;;4943760;28;20402;-78
2022/12/08 05:07:15;;;;;;;6.95;1.60;;;3.70;99.90;;;;;;4959707;28;20119;-77
2022/12/08 05:09:41;;;;;;;4.53;1.40;;;3.50;99.90;;;;;;4975918;28;20039;-78
2022/12/08 05:12:06;;;;;;;3.08;1.15;;;3.00;99.90;;;;;;4960488;28;20081;-78
2022/12/08 05:14:32;;;;;;;5.43;1.27;;;3.00;99.90;;;;;;4966396;28;20137;-78
2022/12/08 05:16:58;;;;;;;2.78;1.05;;;2.90;99.90;;;;;;4959696;28;20052;-78
2022/12/08 05:19:23;;;;;;;3.55;0.93;;;3.50;99.90;;;;;;4959840;28;20076;-78
2022/12/08 05:21:49;;;;;;;1.10;0.80;;;3.20;99.90;;;;;;4975780;28;20049;-78
2022/12/08 05:24:15;;;;;;;2.78;0.80;;;3.80;99.90;;;;;;4943814;28;20046;-78
2022/12/08 05:26:41;;;;;;;1.70;0.85;;;3.50;99.90;;;;;;4959628;28;20126;-78
2022/12/08 05:29:06;;;;;;;4.40;0.95;;;4.30;99.90;;;;;;4975557;28;20653;-77
2022/12/08 05:31:32;;;;;;;3.53;0.60;;;3.00;99.90;;;;;;4959811;28;20401;-77
2022/12/08 05:33:58;;;;;;;2.13;0.52;;;3.00;99.90;;;;;;4975224;28;20058;-78
2022/12/08 05:36:23;;;;;;;1.80;0.60;;;3.00;99.90;;;;;;4975924;28;20105;-77
2022/12/08 05:38:49;;;;;;;1.83;0.73;;;2.90;99.90;;;;;;4975197;28;20073;-78
2022/12/08 05:41:18;;;;;;;2.05;0.40;;;3.80;99.90;;;;;;4991389;28;20053;-77
2022/12/08 05:43:44;;;;;;;2.25;0.52;;;2.90;99.90;;;;;;4975289;28;20050;-77
2022/12/08 05:46:11;;;;;;;1.38;0.40;;;3.40;99.90;;;;;;4975259;28;20384;-78
2022/12/08 05:48:37;;;;;;;3.50;0.70;;;2.90;99.90;;;;;;4959106;28;20100;-78
2022/12/08 05:51:04;;;;;;;1.88;0.40;;;2.90;99.90;;;;;;4975260;28;20034;-78
2022/12/08 05:53:30;;;;;;;1.70;0.65;;;2.90;99.90;;;;;;4959315;28;20045;-77
2022/12/08 05:55:55;;;;;;;3.05;0.82;;;2.90;99.90;;;;;;4975196;28;20042;-77
2022/12/08 05:58:22;;;;;;;2.58;0.50;;;4.60;99.90;;;;;;4991523;28;20054;-78
2022/12/08 06:00:49;;;;;;;2.00;0.60;;;2.90;99.90;;;;;;4965635;28;20082;-78
2022/12/08 06:03:17;;;;;;;1.80;0.60;;;2.90;99.90;;;;;;4991186;28;20397;-78
2022/12/08 06:05:44;;;;;;;2.35;0.70;;;4.30;99.90;;;;;;4991381;28;20142;-77
2022/12/08 06:08:11;;;;;;;10.80;1.50;;;4.30;99.90;;;;;;4983333;28;20372;-78
2022/12/08 06:10:42;;;;;;;2.72;0.70;;;2.80;99.90;;;;;;4975080;28;20049;-78
2022/12/08 06:13:08;;;;;;;1.83;0.70;;;2.90;99.90;;;;;;4990904;28;20129;-78
2022/12/08 06:15:35;;;;;;;1.42;0.73;;;2.80;99.90;;;;;;4962800;28;20042;-77
2022/12/08 06:18:01;;;;;;;2.00;0.85;;;4.00;99.90;;;;;;4974268;28;20046;-77
2022/12/08 06:20:27;;;;;;;3.25;0.80;;;3.80;99.90;;;;;;4974301;28;20073;-77
2022/12/08 06:22:54;;;;;;;2.67;0.82;;;2.80;99.90;;;;;;4973703;28;20045;-78
2022/12/08 06:25:20;;;;;;;5.78;0.90;;;2.80;99.90;;;;;;4990426;28;20487;-78
2022/12/08 06:27:45;;;;;;;4.55;0.63;;;2.80;99.90;;;;;;4968286;28;20069;-78
2022/12/08 06:30:11;;;;;;;5.78;0.70;;;2.80;99.90;;;;;;4990534;28;20490;-78
2022/12/08 06:32:37;;;;;;;3.13;1.00;;;2.80;99.90;;;;;;4958577;28;20042;-78
2022/12/08 06:35:03;;;;;;;1.17;0.80;;;2.70;99.90;;;;;;4989738;28;20611;-78
2022/12/08 06:37:29;;;;;;;2.95;0.80;;;2.80;99.90;;;;;;4956694;28;21059;-78
2022/12/08 06:39:55;;;;;;;2.28;0.55;;;4.20;99.90;;;;;;4957601;28;20084;-78
2022/12/08 06:45:22;;;;;;;2.15;0.47;;;3.60;99.90;;;;;;4960768;28;20050;-77
2022/12/08 06:47:47;;;;;;;2.45;0.77;;;2.80;99.90;;;;;;4968501;28;20406;-78
2022/12/08 06:50:13;;;;;;;4.80;0.65;;;2.80;99.90;;;;;;4989215;28;20042;-78
2022/12/08 06:52:40;;;;;;;3.13;0.60;;;2.70;99.90;;;;;;4967043;28;20035;-78
2022/12/08 06:55:07;;;;;;;2.85;0.70;;;2.80;99.90;;;;;;4990100;28;20038;-78
2022/12/08 06:57:32;;;;;;;2.33;0.50;;;2.80;99.90;;;;;;4957847;28;20052;-78
2022/12/08 06:59:58;;;;;;;1.65;0.60;;;3.10;99.90;;;;;;4957989;28;20034;-78
2022/12/08 07:02:24;;;;;;;1.42;0.60;;;2.80;99.90;;;;;;4958124;28;20038;-77
2022/12/08 07:04:50;;;;;;;2.65;0.75;;;2.80;99.90;;;;;;4941313;28;20486;-77
2022/12/08 07:07:16;;;;;;;1.88;0.90;;;2.80;99.90;;;;;;4956945;28;20030;-77
2022/12/08 07:09:41;;;;;;;3.17;0.80;;;4.20;99.90;;;;;;4957630;28;20042;-78
2022/12/08 07:12:08;;;;;;;4.53;0.90;;;3.20;99.90;;;;;;4974389;28;20046;-77
2022/12/08 07:14:34;;;;;;;2.15;0.82;;;2.80;99.90;;;;;;4957361;28;20112;-77
2022/12/08 07:17:00;;;;;;;2.70;1.00;;;2.80;99.90;;;;;;4941199;28;20457;-77
2022/12/08 07:19:26;;;;;;;1.95;0.73;;;3.10;99.90;;;;;;4954273;28;20130;-77
2022/12/08 07:21:52;;;;;;;5.70;0.80;;;2.90;99.90;;;;;;4971026;28;20106;-77
2022/12/08 07:24:18;;;;;;;2.25;0.60;;;3.50;99.90;;;;;;4972544;28;20050;-77
2022/12/08 07:26:43;;;;;;;2.15;0.60;;;2.90;99.90;;;;;;4989685;28;20050;-78
2022/12/08 07:29:09;;;;;;;1.90;0.80;;;3.20;99.90;;;;;;4972606;28;20042;-78
2022/12/08 07:31:35;;;;;;;3.65;0.85;;;2.90;99.90;;;;;;4987931;28;20548;-77
2022/12/08 07:34:01;;;;;;;3.17;0.70;;;2.90;99.90;;;;;;4972363;28;20605;-78
2022/12/08 07:36:27;;;;;;;0.68;0.45;;;2.90;99.90;;;;;;4955978;28;20049;-76
2022/12/08 07:38:53;;;;;;;4.15;0.70;;;2.90;99.90;;;;;;4971322;28;20046;-77
2022/12/08 07:41:21;;;;;;;0.85;0.50;;;2.90;99.90;;;;;;4971653;28;20042;-76
2022/12/08 07:43:47;;;;;;;1.33;0.60;;;2.90;99.90;;;;;;4970796;28;20042;-77
2022/12/08 07:46:18;;;;;;;2.53;0.60;;;2.90;99.90;;;;;;4988851;28;20125;-76
2022/12/08 07:48:45;;;;;;;2.83;0.60;;;2.90;99.90;;;;;;4972819;28;20483;-77
2022/12/08 07:51:12;;;;;;;2.60;0.80;;;3.80;99.90;;;;;;4961876;28;20047;-78
2022/12/08 07:53:39;;;;;;;2.45;0.70;;;2.90;99.90;;;;;;4973762;28;20038;-77
2022/12/08 07:56:06;;;;;;;3.45;0.60;;;2.80;99.90;;;;;;4988664;28;20046;-77
2022/12/08 07:58:32;;;;;;;1.80;0.68;;;2.90;99.90;;;;;;4957296;28;20077;-77
2022/12/08 08:00:57;;;;;;;2.15;1.00;;;3.00;99.90;;;;;;4972026;28;20097;-77
2022/12/08 08:03:23;;;;;;;2.25;1.00;;;2.80;99.90;;;;;;4972351;28;20148;-77
2022/12/08 08:05:49;;;;;;;3.88;1.00;;;2.80;99.90;;;;;;4971265;28;20057;-78
2022/12/08 08:08:16;;;;;;;1.52;0.73;;;3.10;99.90;;;;;;4987921;28;20049;-80
2022/12/08 08:10:41;;;;;;;1.80;0.90;;;3.50;99.90;;;;;;4971147;28;20101;-77
2022/12/08 08:13:08;;;;;;;4.20;0.70;;;3.20;99.90;;;;;;4988801;28;20054;-76
2022/12/08 08:15:34;;;;;;;3.42;1.08;;;2.80;99.90;;;;;;4956438;28;20062;-77
2022/12/08 08:17:59;;;;;;;1.92;1.02;;;2.80;99.90;;;;;;4972702;28;20049;-77
2022/12/08 08:20:25;;;;;;;4.50;0.70;;;4.00;99.90;;;;;;4956741;28;20057;-77
2022/12/08 08:22:51;;;;;;;1.02;0.80;;;2.80;99.90;;;;;;4972746;28;20050;-77
2022/12/08 08:25:19;;;;;;;2.63;1.20;;;3.80;99.90;;;;;;4989503;28;20457;-77
2022/12/08 08:27:45;;;;;;;2.25;1.15;;;2.90;99.90;;;;;;4989498;28;20077;-77
2022/12/08 08:30:12;;;;;;;3.72;1.40;;;3.70;99.90;;;;;;4972629;28;20398;-77
2022/12/08 08:32:38;;;;;;;3.22;1.40;;;2.80;99.90;;;;;;4973696;28;20057;-78
2022/12/08 08:35:04;;;;;;;3.03;1.90;;;2.80;99.90;;;;;;4960272;28;20364;-77
2022/12/08 08:37:30;;;;;;;3.55;2.13;;;2.90;99.90;;;;;;4976356;28;20039;-77
2022/12/08 08:39:56;;;;;;;6.70;2.00;;;2.80;99.90;;;;;;4992047;28;20053;-77
2022/12/08 08:42:22;;;;;;;5.32;2.13;;;2.90;99.90;;;;;;4990323;28;20122;-78
2022/12/08 08:44:47;;;;;;;5.18;2.55;;;2.90;99.90;;;;;;4991887;28;20073;-76
2022/12/08 08:47:13;;;;;;;4.85;2.70;;;2.90;99.90;;;;;;4992499;28;20074;-76
2022/12/08 08:49:39;;;;;;;5.32;2.42;;;3.40;99.90;;;;;;4975829;28;20517;-77
2022/12/08 08:52:05;;;;;;;6.70;2.65;;;2.90;99.90;;;;;;4974806;28;20046;-77
2022/12/08 08:54:31;;;;;;;6.70;2.90;;;2.90;99.90;;;;;;4957872;28;20038;-75
2022/12/08 08:56:58;;;;;;;5.50;2.80;;;2.90;99.90;;;;;;4976075;28;20050;-76
2022/12/08 08:59:24;;;;;;;6.88;2.83;;;2.90;99.90;;;;;;4975000;28;20499;-77
2022/12/08 09:01:50;;;;;;;4.45;3.03;;;3.30;99.90;;;;;;4974878;28;20073;-78
2022/12/08 09:04:16;;;;;;;7.80;3.13;;;3.00;99.90;;;;;;4958603;28;20109;-78
2022/12/08 09:06:44;;;;;;;6.50;3.08;;;4.20;99.90;;;;;;4958562;28;20081;-77
2022/12/08 09:09:10;;;;;;;4.78;2.95;;;3.00;99.90;;;;;;4959922;28;20078;-78
2022/12/08 09:11:36;;;;;;;3.90;2.85;;;3.00;99.90;;;;;;4959429;28;20397;-78
2022/12/08 09:14:02;;;;;;;9.02;2.70;;;3.10;99.90;;;;;;4959380;28;20085;-78
2022/12/08 09:16:28;;;;;;;3.95;2.40;;;3.00;99.90;;;;;;4975572;28;20042;-78
2022/12/08 09:18:54;;;;;;;6.63;2.35;;;3.10;99.90;;;;;;4982925;28;20104;-78
2022/12/08 09:21:23;;;;;;;5.45;2.10;;;3.10;99.90;;;;;;4992473;28;20054;-78
2022/12/08 09:23:49;;;;;;;5.15;2.03;;;3.10;99.90;;;;;;4976089;28;20084;-78
2022/12/08 09:26:15;;;;;;;4.10;1.55;;;3.10;99.90;;;;;;4959870;28;20038;-78
2022/12/08 09:28:45;;;;;;;6.05;2.22;;;3.40;99.90;;;;;;4975266;28;20053;-78
2022/12/08 09:31:15;;;;;;;6.75;2.22;;;3.90;99.90;;;;;;4999969;28;20042;-78
2022/12/08 09:33:41;;;;;;;4.65;1.70;;;3.10;99.90;;;;;;4991951;28;20491;-78
2022/12/08 09:36:07;;;;;;;3.53;1.60;;;3.50;99.90;;;;;;4992293;28;20483;-78
2022/12/08 09:38:33;;;;;;;4.57;1.60;;;3.20;99.90;;;;;;4975284;28;20045;-78
2022/12/08 09:41:01;;;;;;;1.85;1.40;;;3.20;99.90;;;;;;4975642;28;20038;-78
2022/12/08 09:44:04;;;;;;;8.45;1.63;;;3.20;99.90;;;;;;4959489;28;20042;-78
2022/12/08 09:46:33;;;;;;;3.00;1.42;;;3.30;99.90;;;;;;4968610;28;20046;-78
2022/12/08 09:49:00;;;;;;;5.47;1.42;;;3.30;99.90;;;;;;4975150;28;20057;-78
2022/12/08 09:51:31;;;;;;;2.72;1.38;;;3.30;99.90;;;;;;4976324;28;20046;-78
2022/12/08 09:54:06;;;;;;;4.47;1.50;;;3.30;99.90;;;;;;4975639;28;20049;-78
2022/12/08 09:56:35;;;;;;;3.55;1.20;;;3.30;99.90;;;;;;4975945;28;20079;-78
2022/12/08 09:59:22;;;;;;;3.90;1.40;;;3.30;99.90;;;;;;4991830;28;20446;-84
2022/12/08 10:01:48;;;;;;;4.82;1.60;;;3.30;99.90;;;;;;4976547;28;20162;-84
2022/12/08 10:04:34;;;;;;;5.80;1.90;;;2.70;99.90;;;;;;4963099;28;20105;-84
2022/12/08 10:07:23;;;;;;;4.43;1.42;;;3.40;99.90;;;;;;5020357;28;20050;-84
2022/12/08 10:10:14;;;;;;;4.47;1.30;;;3.50;99.90;;;;;;4991704;28;20065;-84
2022/12/08 10:12:54;;;;;;;4.40;1.30;;;3.50;99.90;;;;;;4965702;28;20117;-84
2022/12/08 10:15:39;;;;;;;5.18;1.50;;;3.50;99.90;;;;;;4967083;28;20146;-84
2022/12/08 10:18:20;;;;;;;4.57;1.30;;;3.50;99.90;;;;;;5007900;28;20046;-84
2022/12/08 10:20:48;;;;;;;4.03;1.60;;;3.50;99.90;;;;;;4992286;28;20046;-84
2022/12/08 10:23:23;;;;;;;3.05;1.60;;;3.50;99.90;;;;;;4960735;28;20042;-84
2022/12/08 10:26:04;;;;;;;3.05;1.80;;;3.50;99.90;;;;;;4993334;28;20077;-84
2022/12/08 10:28:31;;;;;;;3.45;1.83;;;3.50;99.90;;;;;;4978977;28;20045;-84
2022/12/08 10:30:57;;;;;;;3.45;2.13;;;3.50;99.90;;;;;;4975683;28;20064;-84
2022/12/08 10:33:23;;;;;;;4.22;1.92;;;3.50;99.90;;;;;;4991833;28;20054;-84
2022/12/08 10:35:57;;;;;;;4.72;2.30;;;4.60;99.90;;;;;;4991851;28;20062;-84
2022/12/08 10:38:33;;;;;;;7.20;1.90;;;3.50;99.90;;;;;;4969054;28;20050;-84
2022/12/08 10:41:12;;;;;;;3.60;2.20;;;3.50;99.90;;;;;;4998058;28;20042;-84
2022/12/08 10:43:42;;;;;;;3.22;2.20;;;3.50;99.90;;;;;;4982841;28;20049;-84
2022/12/08 10:46:26;;;;;;;5.75;1.92;;;3.50;99.90;;;;;;4975238;28;20054;-84
2022/12/08 10:49:10;;;;;;;5.60;2.03;;;4.20;99.90;;;;;;4968296;28;20050;-83
2022/12/08 10:51:41;;;;;;;4.75;2.33;;;4.30;99.90;;;;;;5001688;28;20121;-84
2022/12/08 10:54:28;;;;;;;7.07;2.30;;;3.60;99.90;;;;;;4974673;28;20169;-84
2022/12/08 10:56:55;;;;;;;4.85;2.55;;;3.60;99.90;;;;;;4991021;28;20375;-84
2022/12/08 10:59:21;;;;;;;4.53;2.67;;;4.00;99.90;;;;;;4991720;28;20433;-84
2022/12/08 11:01:49;;;;;;;6.50;2.97;;;4.20;99.90;;;;;;4990566;28;20129;-84
2022/12/08 11:04:33;;;;;;;5.15;3.20;;;3.60;99.90;;;;;;4991158;28;20087;-84
2022/12/08 11:07:03;;;;;;;5.18;2.83;;;3.60;99.90;;;;;;4973800;28;20507;-84
2022/12/08 11:09:51;;;;;;;5.18;2.78;;;3.60;99.90;;;;;;4959431;28;20125;-84
2022/12/08 11:12:21;;;;;;;5.88;3.08;;;3.70;99.90;;;;;;4990697;28;20045;-84
2022/12/08 11:15:05;;;;;;;5.28;2.88;;;3.70;99.90;;;;;;4974226;28;20057;-84
2022/12/08 11:17:42;;;;;;;5.38;2.83;;;3.70;99.90;;;;;;4974822;28;20128;-84
2022/12/08 11:20:08;;;;;;;5.03;3.00;;;3.70;99.90;;;;;;4992213;28;20125;-83
2022/12/08 11:22:39;;;;;;;6.38;3.50;;;3.90;99.90;;;;;;4991135;28;20101;-85
2022/12/08 11:25:10;;;;;;;6.38;2.83;;;4.50;99.90;;;;;;4974321;28;20085;-84
2022/12/08 11:27:39;;;;;;;9.18;3.70;;;3.80;99.90;;;;;;5007427;28;20402;-84
2022/12/08 11:30:20;;;;;;;4.68;3.28;;;3.80;99.90;;;;;;4991046;28;20479;-84
2022/12/08 11:32:48;;;;;;;6.53;3.38;;;3.90;99.90;;;;;;4990884;28;20038;-84
2022/12/08 11:35:28;;;;;;;6.80;3.92;;;3.90;99.90;;;;;;4990933;28;20134;-84
2022/12/08 11:38:01;;;;;;;6.97;3.42;;;5.20;99.90;;;;;;4990656;28;20108;-84
2022/12/08 11:40:33;;;;;;;6.78;3.10;;;4.80;99.90;;;;;;4973698;28;20042;-83
2022/12/08 11:43:17;;;;;;;7.13;2.80;;;4.30;99.90;;;;;;5006266;28;20393;-84
2022/12/08 11:45:43;;;;;;;4.22;2.60;;;4.30;99.90;;;;;;4989764;28;20056;-84
2022/12/08 11:48:15;;;;;;;3.72;2.33;;;4.30;99.90;;;;;;4974156;28;20035;-84
2022/12/08 11:50:42;;;;;;;4.05;1.98;;;4.30;99.90;;;;;;4963713;28;20554;-84
2022/12/08 11:53:18;;;;;;;5.40;2.00;;;4.20;99.90;;;;;;4991125;28;20076;-84
2022/12/08 11:55:51;;;;;;;3.08;1.95;;;5.40;99.90;;;;;;4990350;28;20050;-84
2022/12/08 11:58:35;;;;;;;3.88;1.90;;;4.40;99.90;;;;;;4990295;28;20558;-84
2022/12/08 12:01:01;;;;;;;6.55;2.33;;;4.60;99.90;;;;;;4973262;28;20046;-84
2022/12/08 12:03:36;;;;;;;3.15;1.95;;;4.70;99.90;;;;;;4958414;28;20072;-84
2022/12/08 12:06:11;;;;;;;6.35;2.10;;;4.90;99.90;;;;;;4990035;28;20052;-84
2022/12/08 12:09:00;;;;;;;3.83;1.73;;;5.00;99.90;;;;;;4978342;28;20046;-84
2022/12/08 12:14:40;;;;;;;8.25;1.52;;;5.10;99.90;;;;;;4996251;28;20065;-84
2022/12/08 12:17:28;;;;;;;4.10;1.67;;;5.10;99.90;;;;;;4997426;28;20062;-84
2022/12/08 12:19:58;;;;;;;4.22;1.40;;;5.10;99.90;;;;;;4970684;28;20054;-84
2022/12/08 12:22:34;;;;;;;3.45;1.40;;;5.10;99.90;;;;;;4996317;28;20176;-84
2022/12/08 12:25:01;;;;;;;5.20;1.33;;;5.00;99.90;;;;;;4972440;28;20096;-84
2022/12/08 12:27:48;;;;;;;4.97;1.60;;;5.00;99.90;;;;;;4996917;28;20054;-84
2022/12/08 12:30:25;;;;;;;5.75;1.65;;;4.80;99.90;;;;;;4990223;28;20042;-84
2022/12/08 12:32:59;;;;;;;3.95;1.48;;;5.30;99.90;;;;;;4996601;28;20146;-84
2022/12/08 12:35:33;;;;;;;3.15;1.50;;;5.20;99.90;;;;;;4996823;28;20049;-84
2022/12/08 12:38:59;;;;;;;3.03;1.50;;;4.70;99.90;;;;;;4996518;28;20100;-84
2022/12/08 12:40:59;;;;;;;5.22;1.60;;;4.80;99.90;;;;;;4996605;28;20089;-84
2022/12/08 12:43:36;;;;;;;3.20;1.52;;;4.80;99.90;;;;;;4979970;28;20049;-84
2022/12/08 12:46:23;;;;;;;4.18;2.08;;;6.20;99.90;;;;;;4980626;28;20398;-83
2022/12/08 12:48:50;;;;;;;4.00;1.70;;;4.80;99.90;;;;;;4997061;28;20046;-84
2022/12/08 12:51:36;;;;;;;6.80;2.10;;;4.80;99.90;;;;;;4980667;28;20046;-84
2022/12/08 12:54:25;;;;;;;4.47;2.00;;;4.70;99.90;;;;;;4972866;28;20058;-84
2022/12/08 12:57:17;;;;;;;5.30;2.47;;;4.80;99.90;;;;;;4997033;28;20042;-84
2022/12/08 12:59:44;;;;;;;3.63;1.90;;;5.50;99.90;;;;;;5003616;28;20042;-84
2022/12/08 13:02:30;;;;;;;4.72;1.80;;;5.70;99.90;;;;;;4997119;28;20081;-84
2022/12/08 13:05:16;;;;;;;5.00;1.70;;;5.00;99.90;;;;;;4997267;28;20042;-85
2022/12/08 13:08:07;;;;;;;4.45;1.90;;;4.90;99.90;;;;;;4996781;28;20294;-84
2022/12/08 13:10:36;;;;;;;6.55;1.70;;;4.90;99.90;;;;;;4976064;28;20050;-84
2022/12/08 13:13:11;;;;;;;4.78;1.80;;;4.80;99.90;;;;;;4996654;28;20193;-84
2022/12/08 13:15:47;;;;;;;4.83;1.97;;;4.60;99.90;;;;;;4978936;28;20528;-85
2022/12/08 13:18:30;;;;;;;6.43;1.95;;;4.50;99.90;;;;;;4997243;28;20042;-84
2022/12/08 13:21:13;;;;;;;5.97;1.63;;;4.50;99.90;;;;;;4992944;28;20122;-84
2022/12/08 13:23:44;;;;;;;4.10;1.50;;;4.40;99.90;;;;;;5009795;28;20038;-84
2022/12/08 13:26:15;;;;;;;3.50;1.63;;;4.30;99.90;;;;;;4993525;28;20046;-84